createdAt,value
2023-04-25T00:01:24.487Z,17.06
2023-04-25T00:03:26.315Z,17.06
2023-04-25T00:05:28.115Z,17.06
2023-04-25T00:07:29.783Z,17.07
2023-04-25T00:09:31.640Z,17.08
2023-04-25T00:11:33.153Z,17.09
2023-04-25T00:13:34.640Z,17.09
2023-04-25T00:15:37.079Z,17.11
2023-04-25T00:17:39.665Z,17.09
2023-04-25T00:19:41.172Z,17.10
2023-04-25T00:21:42.694Z,17.11
2023-04-25T00:23:44.465Z,17.11
2023-04-25T00:25:47.095Z,17.12
2023-04-25T00:27:48.554Z,17.12
2023-04-25T00:29:50.144Z,17.11
2023-04-25T00:31:51.680Z,17.11
2023-04-25T00:33:54.193Z,17.09
2023-04-25T00:35:57.042Z,17.09
2023-04-25T00:37:58.760Z,17.07
2023-04-25T00:40:00.491Z,17.07
2023-04-25T00:42:03.091Z,17.06
2023-04-25T00:44:05.211Z,17.06
2023-04-25T00:46:06.701Z,17.05
2023-04-25T00:48:08.363Z,17.05
2023-04-25T00:50:10.504Z,17.06
2023-04-25T00:52:13.515Z,17.06
2023-04-25T00:54:15.335Z,17.07
2023-04-25T00:56:17.745Z,17.06
2023-04-25T00:58:20.624Z,17.06
2023-04-25T01:00:22.543Z,17.04
2023-04-25T01:02:24.609Z,17.04
2023-04-25T01:04:28.374Z,17.03
2023-04-25T01:06:29.893Z,17.02
2023-04-25T01:08:32.175Z,17.01
2023-04-25T01:10:33.854Z,17.00
2023-04-25T01:12:35.493Z,17.00
2023-04-25T01:14:36.981Z,16.97
2023-04-25T01:16:40.722Z,16.98
2023-04-25T01:18:43.594Z,16.98
2023-04-25T01:20:46.755Z,16.99
2023-04-25T01:22:48.584Z,16.99
2023-04-25T01:24:50.568Z,17.01
2023-04-25T01:26:52.271Z,17.03
2023-04-25T01:28:59.787Z,17.06
2023-04-25T01:31:02.449Z,17.08
2023-04-25T01:33:05.666Z,17.10
2023-04-25T01:35:11.881Z,17.13
2023-04-25T01:37:13.471Z,17.16
2023-04-25T01:39:15.101Z,17.18
2023-04-25T01:41:17.983Z,17.22
2023-04-25T01:43:19.582Z,17.22
2023-04-25T01:45:21.135Z,17.25
2023-04-25T01:47:23.725Z,17.25
2023-04-25T01:49:25.478Z,17.26
2023-04-25T01:51:27.583Z,17.26
2023-04-25T01:53:29.380Z,17.27
2023-04-25T01:55:31.622Z,17.27
2023-04-25T01:57:40.732Z,17.26
2023-04-25T01:59:44.533Z,17.25
2023-04-25T02:02:12.214Z,17.24
2023-04-25T02:04:13.995Z,17.24
2023-04-25T02:06:17.244Z,17.24
2023-04-25T02:08:20.925Z,17.25
2023-04-25T02:10:22.911Z,17.22
2023-04-25T02:12:31.912Z,17.20
2023-04-25T02:14:48.659Z,17.19
2023-04-25T02:16:55.152Z,17.20
2023-04-25T02:18:56.768Z,17.20
2023-04-25T02:21:00.679Z,17.18
2023-04-25T02:23:02.154Z,17.18
2023-04-25T02:25:05.580Z,17.19
2023-04-25T02:27:07.267Z,17.18
2023-04-25T02:29:11.347Z,17.18
2023-04-25T02:31:12.966Z,17.17
2023-04-25T02:33:14.488Z,17.18
2023-04-25T02:35:15.932Z,17.19
2023-04-25T02:37:17.463Z,17.18
2023-04-25T02:39:20.668Z,17.16
2023-04-25T02:41:22.193Z,17.14
2023-04-25T02:43:23.734Z,17.15
2023-04-25T02:45:27.243Z,17.15
2023-04-25T02:47:29.020Z,17.13
2023-04-25T02:49:30.562Z,17.08
2023-04-25T02:51:32.285Z,17.05
2023-04-25T02:53:33.805Z,17.01
2023-04-25T02:55:35.461Z,16.98
2023-04-25T02:57:38.609Z,16.92
2023-04-25T02:59:40.556Z,16.87
2023-04-25T03:01:42.013Z,16.81
2023-04-25T03:03:43.630Z,16.76
2023-04-25T03:05:46.066Z,16.71
2023-04-25T03:07:47.730Z,16.67
2023-04-25T03:09:51.157Z,16.61
2023-04-25T03:11:52.765Z,16.57
2023-04-25T03:13:54.555Z,16.54
2023-04-25T03:15:56.265Z,16.49
2023-04-25T03:17:57.829Z,16.45
2023-04-25T03:19:59.348Z,16.39
2023-04-25T03:22:01.147Z,16.37
2023-04-25T03:24:05.022Z,16.33
2023-04-25T03:26:06.799Z,16.30
2023-04-25T03:28:08.477Z,16.26
2023-04-25T03:30:10.216Z,16.25
2023-04-25T03:32:13.133Z,16.24
2023-04-25T03:34:15.748Z,16.26
2023-04-25T03:36:17.264Z,16.26
2023-04-25T03:38:18.772Z,16.27
2023-04-25T03:40:20.959Z,16.29
2023-04-25T03:42:44.908Z,16.29
2023-04-25T03:44:47.446Z,16.29
2023-04-25T03:46:49.334Z,16.32
2023-04-25T03:48:51.152Z,16.33
2023-04-25T03:50:57.145Z,16.36
2023-04-25T03:52:58.929Z,16.37
2023-04-25T03:55:03.502Z,16.37
2023-04-25T03:57:04.998Z,16.38
2023-04-25T03:59:09.649Z,16.37
2023-04-25T04:01:11.214Z,16.39
2023-04-25T04:03:14.430Z,16.40
2023-04-25T04:05:16.214Z,16.40
2023-04-25T04:07:24.761Z,16.40
2023-04-25T04:09:29.504Z,16.40
2023-04-25T04:11:33.321Z,16.41
2023-04-25T04:13:34.834Z,16.46
2023-04-25T04:15:37.438Z,16.47
2023-04-25T04:17:39.152Z,16.49
2023-04-25T04:19:40.639Z,16.53
2023-04-25T04:21:48.207Z,16.56
2023-04-25T04:23:50.001Z,16.59
2023-04-25T04:25:53.187Z,16.61
2023-04-25T04:28:05.981Z,16.64
2023-04-25T04:30:16.856Z,16.66
2023-04-25T04:32:31.393Z,16.68
2023-04-25T04:34:34.815Z,16.71
2023-04-25T04:36:36.628Z,16.74
2023-04-25T04:38:40.068Z,16.75
2023-04-25T04:40:44.674Z,16.78
2023-04-25T04:43:04.874Z,16.82
2023-04-25T04:45:06.701Z,16.85
2023-04-25T04:47:25.014Z,16.89
2023-04-25T04:49:37.477Z,16.90
2023-04-25T04:52:06.258Z,16.94
2023-04-25T04:54:38.311Z,16.98
2023-04-25T04:57:03.002Z,17.01
2023-04-25T04:59:25.992Z,17.05
2023-04-25T05:01:50.915Z,17.07
2023-04-25T05:03:53.326Z,17.13
2023-04-25T05:06:13.630Z,17.18
2023-04-25T05:08:34.437Z,17.20
2023-04-25T05:10:44.843Z,17.23
2023-04-25T05:12:54.947Z,17.26
2023-04-25T05:15:15.310Z,17.28
2023-04-25T05:17:37.034Z,17.29
2023-04-25T05:19:55.875Z,17.34
2023-04-25T05:22:09.810Z,17.38
2023-04-25T05:24:31.446Z,17.38
2023-04-25T05:26:47.247Z,17.39
2023-04-25T05:28:59.089Z,17.41
2023-04-25T05:31:12.224Z,17.41
2023-04-25T05:33:21.590Z,17.41
2023-04-25T05:35:23.248Z,17.40
2023-04-25T05:37:26.096Z,17.41
2023-04-25T05:39:31.298Z,17.42
2023-04-25T05:41:38.799Z,17.42
2023-04-25T05:44:00.640Z,17.43
2023-04-25T05:46:08.435Z,17.42
2023-04-25T05:48:26.009Z,17.41
2023-04-25T05:50:37.762Z,17.40
2023-04-25T05:52:51.061Z,17.41
2023-04-25T05:55:12.779Z,17.39
2023-04-25T05:57:24.257Z,17.39
2023-04-25T05:59:26.168Z,17.39
2023-04-25T06:01:27.596Z,17.41
2023-04-25T06:03:29.415Z,17.42
2023-04-25T06:05:33.245Z,17.43
2023-04-25T06:07:34.910Z,17.42
2023-04-25T06:09:39.823Z,17.42
2023-04-25T06:11:41.278Z,17.44
2023-04-25T06:13:43.173Z,17.45
2023-04-25T06:15:44.755Z,17.46
2023-04-25T06:17:47.081Z,17.48
2023-04-25T06:19:48.564Z,17.48
2023-04-25T06:21:50.021Z,17.48
2023-04-25T06:23:51.902Z,17.51
2023-04-25T06:25:57.339Z,17.52
2023-04-25T06:27:59.690Z,17.52
2023-04-25T06:30:01.211Z,17.53
2023-04-25T06:32:03.658Z,17.53
2023-04-25T06:34:05.254Z,17.53
2023-04-25T06:36:11.240Z,17.53
2023-04-25T06:38:13.944Z,17.54
2023-04-25T06:40:20.237Z,17.56
2023-04-25T06:42:21.618Z,17.55
2023-04-25T06:44:32.965Z,17.55
2023-04-25T06:46:34.541Z,17.57
2023-04-25T06:48:35.986Z,17.57
2023-04-25T06:50:37.534Z,17.61
2023-04-25T06:52:39.126Z,17.62
2023-04-25T06:54:41.100Z,17.63
2023-04-25T06:56:55.281Z,17.64
2023-04-25T06:58:56.767Z,17.65
2023-04-25T07:01:27.667Z,17.67
2023-04-25T07:03:29.982Z,17.70
2023-04-25T07:05:35.969Z,17.71
2023-04-25T07:07:37.563Z,17.72
2023-04-25T07:09:39.204Z,17.74
2023-04-25T07:11:40.684Z,17.77
2023-04-25T07:13:42.319Z,17.80
2023-04-25T07:15:44.553Z,17.83
2023-04-25T07:17:47.071Z,17.85
2023-04-25T07:19:48.583Z,17.87
2023-04-25T07:21:50.982Z,17.89
2023-04-25T07:23:53.790Z,17.92
2023-04-25T07:26:00.683Z,17.95
2023-04-25T07:28:03.585Z,17.98
2023-04-25T07:30:05.920Z,18.01
2023-04-25T07:32:08.621Z,18.05
2023-04-25T07:34:10.165Z,18.07
2023-04-25T07:36:13.855Z,18.11
2023-04-25T07:38:15.460Z,18.15
2023-04-25T07:40:17.485Z,18.17
2023-04-25T07:42:23.295Z,18.20
2023-04-25T07:44:25.350Z,18.25
2023-04-25T07:46:27.368Z,18.26
2023-04-25T07:48:29.113Z,18.29
2023-04-25T07:50:31.857Z,18.33
2023-04-25T07:52:33.707Z,18.36
2023-04-25T07:54:42.682Z,18.40
2023-04-25T07:56:53.468Z,18.45
2023-04-25T07:58:58.881Z,18.50
2023-04-25T08:01:00.424Z,18.56
2023-04-25T08:03:24.015Z,18.64
2023-04-25T08:05:26.654Z,18.73
2023-04-25T08:07:36.099Z,18.83
2023-04-25T08:09:40.004Z,18.90
2023-04-25T08:11:46.936Z,19.00
2023-04-25T08:13:51.367Z,19.09
2023-04-25T08:15:52.992Z,19.18
2023-04-25T08:17:54.921Z,19.27
2023-04-25T08:19:56.832Z,19.37
2023-04-25T08:22:02.352Z,19.47
2023-04-25T08:24:12.556Z,19.58
2023-04-25T08:26:16.098Z,19.66
2023-04-25T08:28:18.450Z,19.77
2023-04-25T08:30:20.600Z,19.85
2023-04-25T08:32:22.405Z,19.92
2023-04-25T08:34:43.764Z,20.05
2023-04-25T08:36:45.735Z,20.15
2023-04-25T08:39:06.242Z,20.32
2023-04-25T08:41:14.727Z,20.45
2023-04-25T08:43:18.846Z,20.55
2023-04-25T08:45:21.436Z,20.63
2023-04-25T08:47:23.664Z,20.68
2023-04-25T08:49:33.085Z,20.72
2023-04-25T08:51:37.075Z,20.79
2023-04-25T08:53:43.685Z,20.85
2023-04-25T08:55:47.204Z,20.96
2023-04-25T08:57:49.110Z,21.06
2023-04-25T08:59:53.656Z,21.17
2023-04-25T09:01:56.257Z,21.28
2023-04-25T09:03:58.665Z,21.40
2023-04-25T09:06:00.515Z,21.53
2023-04-25T09:08:02.821Z,21.66
2023-04-25T09:10:04.801Z,21.79
2023-04-25T09:12:10.902Z,21.90
2023-04-25T09:14:13.785Z,22.01
2023-04-25T09:16:38.841Z,22.12
2023-04-25T09:19:08.098Z,22.23
2023-04-25T09:21:14.321Z,22.35
2023-04-25T09:23:21.721Z,22.46
2023-04-25T09:25:26.030Z,22.58
2023-04-25T09:27:27.952Z,22.67
2023-04-25T09:30:00.356Z,22.75
2023-04-25T09:32:15.252Z,22.86
2023-04-25T09:34:18.079Z,22.95
2023-04-25T09:36:30.493Z,23.08
2023-04-25T09:39:16.582Z,23.21
2023-04-25T09:41:25.776Z,23.33
2023-04-25T09:43:29.494Z,23.46
2023-04-25T09:45:32.613Z,23.58
2023-04-25T09:47:38.758Z,23.69
2023-04-25T09:49:45.763Z,23.79
2023-04-25T09:51:58.284Z,23.91
2023-04-25T09:54:02.958Z,23.99
2023-04-25T09:56:13.038Z,24.05
2023-04-25T09:58:15.821Z,24.08
2023-04-25T10:00:18.695Z,24.06
2023-04-25T10:02:26.139Z,24.00
2023-04-25T10:04:35.404Z,23.94
2023-04-25T10:06:43.942Z,23.89
2023-04-25T10:08:48.116Z,23.85
2023-04-25T10:10:51.743Z,23.81
2023-04-25T10:12:54.113Z,23.84
2023-04-25T10:14:56.440Z,23.84
2023-04-25T10:16:59.752Z,23.82
2023-04-25T10:19:02.136Z,23.80
2023-04-25T10:21:06.012Z,23.75
2023-04-25T10:23:14.102Z,23.70
2023-04-25T10:25:16.179Z,23.65
2023-04-25T10:27:18.158Z,23.60
2023-04-25T10:29:26.843Z,23.54
2023-04-25T10:31:30.020Z,23.53
2023-04-25T10:33:37.767Z,23.54
2023-04-25T10:35:39.471Z,23.54
2023-04-25T10:38:14.627Z,23.54
2023-04-25T10:40:23.084Z,23.55
2023-04-25T10:42:24.524Z,23.57
2023-04-25T10:44:30.927Z,23.56
2023-04-25T10:46:35.021Z,23.56
2023-04-25T10:48:36.470Z,23.53
2023-04-25T10:50:40.061Z,23.50
2023-04-25T10:52:41.608Z,23.43
2023-04-25T10:54:52.225Z,23.34
2023-04-25T10:56:54.273Z,23.31
2023-04-25T10:59:13.240Z,23.28
2023-04-25T11:01:16.771Z,23.29
2023-04-25T11:03:18.404Z,23.29
2023-04-25T11:05:47.630Z,23.25
2023-04-25T11:08:07.903Z,23.23
2023-04-25T11:10:09.932Z,23.18
2023-04-25T11:12:12.867Z,23.14
2023-04-25T11:14:14.545Z,23.07
2023-04-25T11:16:26.758Z,23.01
2023-04-25T11:18:29.514Z,22.95
2023-04-25T11:20:30.986Z,22.90
2023-04-25T11:22:32.652Z,22.88
2023-04-25T11:24:35.894Z,22.82
2023-04-25T11:26:38.463Z,22.73
2023-04-25T11:28:40.143Z,22.72
2023-04-25T11:30:49.618Z,22.66
2023-04-25T11:32:52.923Z,22.63
2023-04-25T11:34:54.569Z,22.59
2023-04-25T11:36:56.139Z,22.57
2023-04-25T11:38:57.926Z,22.54
2023-04-25T11:40:59.702Z,22.52
2023-04-25T11:43:02.256Z,22.52
2023-04-25T11:45:05.233Z,22.47
2023-04-25T11:47:06.806Z,22.46
2023-04-25T11:49:08.225Z,22.43
2023-04-25T11:51:10.070Z,22.41
2023-04-25T11:53:11.795Z,22.40
2023-04-25T11:55:18.330Z,22.37
2023-04-25T11:57:21.037Z,22.35
2023-04-25T11:59:26.495Z,22.34
2023-04-25T12:01:30.535Z,22.32
2023-04-25T12:03:34.179Z,22.30
2023-04-25T12:05:36.049Z,22.28
2023-04-25T12:07:40.188Z,22.27
2023-04-25T12:09:42.511Z,22.24
2023-04-25T12:12:05.243Z,22.20
2023-04-25T12:14:07.663Z,22.18
2023-04-25T12:16:09.151Z,22.14
2023-04-25T12:18:10.765Z,22.13
2023-04-25T12:20:15.633Z,22.12
2023-04-25T12:22:24.813Z,22.11
2023-04-25T12:24:28.711Z,22.10
2023-04-25T12:26:51.091Z,22.06
2023-04-25T12:28:53.563Z,22.03
2023-04-25T12:31:00.082Z,22.03
2023-04-25T12:33:01.856Z,22.01
2023-04-25T12:35:03.436Z,21.99
2023-04-25T12:37:04.857Z,21.99
2023-04-25T12:39:06.307Z,21.97
2023-04-25T12:41:08.414Z,21.96
2023-04-25T12:43:09.830Z,21.93
2023-04-25T12:45:11.280Z,21.91
2023-04-25T12:47:12.781Z,21.89
2023-04-25T12:49:18.748Z,21.85
2023-04-25T12:51:20.663Z,21.80
2023-04-25T12:53:23.744Z,21.76
2023-04-25T12:55:25.205Z,21.74
2023-04-25T12:57:26.714Z,21.70
2023-04-25T12:59:28.666Z,21.69
2023-04-25T13:01:30.768Z,21.65
2023-04-25T13:03:33.070Z,21.64
2023-04-25T13:05:34.664Z,21.62
2023-04-25T13:07:36.193Z,21.58
2023-04-25T13:09:37.778Z,21.53
2023-04-25T13:11:39.601Z,21.51
2023-04-25T13:13:41.268Z,21.51
2023-04-25T13:15:42.657Z,21.49
2023-04-25T13:17:44.158Z,21.50
2023-04-25T13:19:45.993Z,21.50
2023-04-25T13:21:47.503Z,21.50
2023-04-25T13:23:49.275Z,21.51
2023-04-25T13:25:50.996Z,21.52
2023-04-25T13:27:52.443Z,21.53
2023-04-25T13:29:53.909Z,21.54
2023-04-25T13:31:55.834Z,21.56
2023-04-25T13:33:57.279Z,21.53
2023-04-25T13:35:58.775Z,21.52
2023-04-25T13:38:00.680Z,21.51
2023-04-25T13:40:11.052Z,21.47
2023-04-25T13:42:12.656Z,21.45
2023-04-25T13:44:14.198Z,21.40
2023-04-25T13:46:35.383Z,21.38
2023-04-25T13:48:39.884Z,21.32
2023-04-25T13:50:41.310Z,21.28
2023-04-25T13:52:43.043Z,21.24
2023-04-25T13:54:44.500Z,21.20
2023-04-25T13:56:46.586Z,21.18
2023-04-25T13:58:48.074Z,21.14
2023-04-25T14:00:49.518Z,21.12
2023-04-25T14:02:51.361Z,21.10
2023-04-25T14:04:52.907Z,21.07
2023-04-25T14:06:54.598Z,21.06
2023-04-25T14:08:57.517Z,21.06
2023-04-25T14:10:59.006Z,21.06
2023-04-25T14:13:01.636Z,21.04
2023-04-25T14:15:03.638Z,21.03
2023-04-25T14:17:05.295Z,21.03
2023-04-25T14:19:06.686Z,21.02
2023-04-25T14:21:08.183Z,21.01
2023-04-25T14:23:09.650Z,21.00
2023-04-25T14:25:11.214Z,20.97
2023-04-25T14:27:12.812Z,20.96
2023-04-25T14:29:14.282Z,20.95
2023-04-25T14:31:15.892Z,20.93
2023-04-25T14:33:17.329Z,20.92
2023-04-25T14:35:18.965Z,20.92
2023-04-25T14:37:20.811Z,20.90
2023-04-25T14:39:22.294Z,20.86
2023-04-25T14:41:24.109Z,20.85
2023-04-25T14:43:25.586Z,20.82
2023-04-25T14:45:27.076Z,20.82
2023-04-25T14:47:28.534Z,20.80
2023-04-25T14:49:30.002Z,20.80
2023-04-25T14:51:31.920Z,20.79
2023-04-25T14:53:33.451Z,20.76
2023-04-25T14:55:34.951Z,20.74
2023-04-25T14:57:36.406Z,20.70
2023-04-25T14:59:38.135Z,20.65
2023-04-25T15:01:43.628Z,20.60
2023-04-25T15:03:55.539Z,20.52
2023-04-25T15:06:08.922Z,20.44
2023-04-25T15:08:20.489Z,20.35
2023-04-25T15:10:36.941Z,20.26
2023-04-25T15:12:38.565Z,20.19
2023-04-25T15:14:42.711Z,20.11
2023-04-25T15:16:44.269Z,20.09
2023-04-25T15:18:45.969Z,20.05
2023-04-25T15:20:47.419Z,20.00
2023-04-25T15:22:49.784Z,19.97
2023-04-25T15:24:51.639Z,19.93
2023-04-25T15:26:53.264Z,19.89
2023-04-25T15:28:54.712Z,19.88
2023-04-25T15:30:56.395Z,19.84
2023-04-25T15:32:57.957Z,19.81
2023-04-25T15:34:59.428Z,19.79
2023-04-25T15:37:01.160Z,19.75
2023-04-25T15:39:02.808Z,19.73
2023-04-25T15:41:06.749Z,19.69
2023-04-25T15:43:11.451Z,19.66
2023-04-25T15:45:14.536Z,19.62
2023-04-25T15:47:15.955Z,19.53
2023-04-25T15:49:19.313Z,19.47
2023-04-25T15:51:21.315Z,19.43
2023-04-25T15:53:22.771Z,19.38
2023-04-25T15:55:26.810Z,19.32
2023-04-25T15:57:28.321Z,19.26
2023-04-25T15:59:29.743Z,19.20
2023-04-25T16:01:31.441Z,19.15
2023-04-25T16:03:35.494Z,19.11
2023-04-25T16:05:38.035Z,19.05
2023-04-25T16:07:40.269Z,18.99
2023-04-25T16:09:41.798Z,18.92
2023-04-25T16:11:43.333Z,18.88
2023-04-25T16:13:44.968Z,18.83
2023-04-25T16:15:46.380Z,18.77
2023-04-25T16:17:47.943Z,18.71
2023-04-25T16:19:50.301Z,18.67
2023-04-25T16:21:51.944Z,18.64
2023-04-25T16:23:53.588Z,18.61
2023-04-25T16:25:55.217Z,18.54
2023-04-25T16:27:56.661Z,18.49
2023-04-25T16:29:58.106Z,18.44
2023-04-25T16:31:59.667Z,18.38
2023-04-25T16:34:02.039Z,18.34
2023-04-25T16:36:03.667Z,18.29
2023-04-25T16:38:05.311Z,18.25
2023-04-25T16:40:09.925Z,18.21
2023-04-25T16:42:11.501Z,18.17
2023-04-25T16:44:13.429Z,18.13
2023-04-25T16:46:14.971Z,18.10
2023-04-25T16:48:19.182Z,18.04
2023-04-25T16:50:20.753Z,18.00
2023-04-25T16:52:23.621Z,17.95
2023-04-25T16:54:28.079Z,17.89
2023-04-25T16:56:29.516Z,17.83
2023-04-25T16:58:31.022Z,17.80
2023-04-25T17:00:32.496Z,17.73
2023-04-25T17:02:34.126Z,17.69
2023-04-25T17:04:35.784Z,17.63
2023-04-25T17:06:37.476Z,17.59
2023-04-25T17:08:39.006Z,17.54
2023-04-25T17:10:40.760Z,17.53
2023-04-25T17:12:42.252Z,17.49
2023-04-25T17:14:43.836Z,17.45
2023-04-25T17:16:46.049Z,17.39
2023-04-25T17:18:47.764Z,17.34
2023-04-25T17:20:49.220Z,17.30
2023-04-25T17:22:50.664Z,17.26
2023-04-25T17:24:52.201Z,17.22
2023-04-25T17:26:54.279Z,17.19
2023-04-25T17:28:56.091Z,17.13
2023-04-25T17:30:57.712Z,17.08
2023-04-25T17:32:59.266Z,17.04
2023-04-25T17:35:01.286Z,17.00
2023-04-25T17:37:03.166Z,16.97
2023-04-25T17:39:06.355Z,16.94
2023-04-25T17:41:10.302Z,16.90
2023-04-25T17:43:11.725Z,16.87
2023-04-25T17:45:13.729Z,16.90
2023-04-25T17:47:16.849Z,16.88
2023-04-25T17:49:18.228Z,16.90
2023-04-25T17:51:19.655Z,16.92
2023-04-25T17:53:21.094Z,16.94
2023-04-25T17:55:23.651Z,16.97
2023-04-25T17:57:25.364Z,17.01
2023-04-25T17:59:28.023Z,17.04
2023-04-25T18:01:30.245Z,17.08
2023-04-25T18:03:32.340Z,17.13
2023-04-25T18:05:33.950Z,17.18
2023-04-25T18:07:36.207Z,17.22
2023-04-25T18:09:37.715Z,17.28
2023-04-25T18:11:39.284Z,17.33
2023-04-25T18:13:41.192Z,17.37
2023-04-25T18:15:43.073Z,17.42
2023-04-25T18:17:44.765Z,17.48
2023-04-25T18:19:46.447Z,17.52
2023-04-25T18:21:54.189Z,17.57
2023-04-25T18:23:55.750Z,17.61
2023-04-25T18:25:57.309Z,17.65
2023-04-25T18:28:00.067Z,17.71
2023-04-25T18:30:01.578Z,17.75
2023-04-25T18:32:05.255Z,17.79
2023-04-25T18:34:08.182Z,17.82
2023-04-25T18:36:09.628Z,17.86
2023-04-25T18:38:11.767Z,17.90
2023-04-25T18:40:16.054Z,17.91
2023-04-25T18:42:19.737Z,17.95
2023-04-25T18:44:21.169Z,17.99
2023-04-25T18:46:22.783Z,18.02
2023-04-25T18:48:24.361Z,18.04
2023-04-25T18:50:26.374Z,18.07
2023-04-25T18:52:28.001Z,18.11
2023-04-25T18:54:29.490Z,18.13
2023-04-25T18:56:31.083Z,18.15
2023-04-25T18:58:32.511Z,18.16
2023-04-25T19:00:34.143Z,18.19
2023-04-25T19:02:37.004Z,18.21
2023-04-25T19:04:38.775Z,18.23
2023-04-25T19:06:40.388Z,18.24
2023-04-25T19:08:41.909Z,18.25
2023-04-25T19:10:43.381Z,18.27
2023-04-25T19:12:44.841Z,18.29
2023-04-25T19:14:46.271Z,18.29
2023-04-25T19:16:48.105Z,18.32
2023-04-25T19:18:51.997Z,18.32
2023-04-25T19:20:53.635Z,18.32
2023-04-25T19:22:55.080Z,18.34
2023-04-25T19:25:09.046Z,18.35
2023-04-25T19:27:11.797Z,18.36
2023-04-25T19:29:15.141Z,18.36
2023-04-25T19:31:16.977Z,18.36
2023-04-25T19:33:19.375Z,18.37
2023-04-25T19:35:20.914Z,18.38
2023-04-25T19:37:22.804Z,18.40
2023-04-25T19:39:24.260Z,18.42
2023-04-25T19:41:25.750Z,18.42
2023-04-25T19:43:27.576Z,18.44
2023-04-25T19:45:29.080Z,18.45
2023-04-25T19:47:30.554Z,18.47
2023-04-25T19:49:32.178Z,18.49
2023-04-25T19:51:34.275Z,18.49
2023-04-25T19:53:35.727Z,18.50
2023-04-25T19:55:37.150Z,18.52
2023-04-25T19:57:38.770Z,18.54
2023-04-25T19:59:40.950Z,18.54
2023-04-25T20:01:42.423Z,18.56
2023-04-25T20:03:44.328Z,18.57
2023-04-25T20:05:45.784Z,18.56
2023-04-25T20:07:47.187Z,18.58
2023-04-25T20:09:49.290Z,18.59
2023-04-25T20:11:50.840Z,18.59
2023-04-25T20:13:52.528Z,18.60
2023-04-25T20:15:54.391Z,18.59
2023-04-25T20:17:55.964Z,18.60
2023-04-25T20:19:57.434Z,18.61
2023-04-25T20:21:58.852Z,18.59
2023-04-25T20:24:01.488Z,18.60
2023-04-25T20:26:04.845Z,18.58
2023-04-25T20:28:06.599Z,18.59
2023-04-25T20:30:09.953Z,18.58
2023-04-25T20:32:12.188Z,18.57
2023-04-25T20:34:13.631Z,18.56
2023-04-25T20:36:15.597Z,18.55
2023-04-25T20:38:17.085Z,18.54
2023-04-25T20:40:18.567Z,18.53
2023-04-25T20:42:20.000Z,18.51
2023-04-25T20:44:23.351Z,18.50
2023-04-25T20:46:25.402Z,18.48
2023-04-25T20:48:27.263Z,18.46
2023-04-25T20:50:28.681Z,18.44
2023-04-25T20:52:31.854Z,18.42
2023-04-25T20:54:33.899Z,18.42
2023-04-25T20:56:36.423Z,18.38
2023-04-25T20:58:37.864Z,18.38
2023-04-25T21:00:44.331Z,18.35
2023-04-25T21:02:46.859Z,18.34
2023-04-25T21:04:48.763Z,18.31
2023-04-25T21:06:50.396Z,18.30
2023-04-25T21:08:52.462Z,18.28
2023-04-25T21:10:54.180Z,18.26
2023-04-25T21:12:56.530Z,18.24
2023-04-25T21:15:00.464Z,18.21
2023-04-25T21:17:02.005Z,18.21
2023-04-25T21:19:03.892Z,18.19
2023-04-25T21:21:06.178Z,18.18
2023-04-25T21:23:07.625Z,18.15
2023-04-25T21:25:09.528Z,18.15
2023-04-25T21:27:10.985Z,18.13
2023-04-25T21:29:12.425Z,18.11
2023-04-25T21:31:14.611Z,18.10
2023-04-25T21:33:16.295Z,18.07
2023-04-25T21:35:19.585Z,18.10
2023-04-25T21:37:21.101Z,18.07
2023-04-25T21:39:23.170Z,18.06
2023-04-25T21:41:25.497Z,18.05
2023-04-25T21:43:26.955Z,18.03
2023-04-25T21:45:29.204Z,18.01
2023-04-25T21:47:32.245Z,17.99
2023-04-25T21:49:33.688Z,17.98
2023-04-25T21:51:35.154Z,17.95
2023-04-25T21:53:36.661Z,17.95
2023-04-25T21:55:38.113Z,17.93
2023-04-25T21:57:39.519Z,17.90
2023-04-25T21:59:41.348Z,17.87
2023-04-25T22:01:43.490Z,17.86
2023-04-25T22:03:45.069Z,17.84
2023-04-25T22:05:46.784Z,17.82
2023-04-25T22:07:50.473Z,17.81
2023-04-25T22:09:55.453Z,17.76
2023-04-25T22:11:58.579Z,17.73
2023-04-25T22:14:01.146Z,17.70
2023-04-25T22:16:04.345Z,17.67
2023-04-25T22:18:05.992Z,17.65
2023-04-25T22:20:13.225Z,17.62
2023-04-25T22:22:14.624Z,17.58
2023-04-25T22:24:16.317Z,17.58
2023-04-25T22:26:18.229Z,17.54
2023-04-25T22:28:20.191Z,17.50
2023-04-25T22:30:21.700Z,17.47
2023-04-25T22:32:23.085Z,17.44
2023-04-25T22:34:24.514Z,17.42
2023-04-25T22:36:27.510Z,17.39
2023-04-25T22:38:29.692Z,17.36
2023-04-25T22:40:31.326Z,17.34
2023-04-25T22:42:40.186Z,17.30
2023-04-25T22:44:41.610Z,17.28
2023-04-25T22:46:43.167Z,17.25
2023-04-25T22:48:45.938Z,17.21
2023-04-25T22:50:47.356Z,17.18
2023-04-25T22:52:48.856Z,17.14
2023-04-25T22:54:50.246Z,17.12
2023-04-25T22:56:52.296Z,17.09
2023-04-25T22:58:54.200Z,17.04
2023-04-25T23:00:55.883Z,17.03
2023-04-25T23:02:58.145Z,17.02
2023-04-25T23:05:00.055Z,17.00
2023-04-25T23:07:01.860Z,16.99
2023-04-25T23:09:03.967Z,16.98
2023-04-25T23:11:07.499Z,16.96
2023-04-25T23:13:09.001Z,16.93
2023-04-25T23:15:10.848Z,16.91
2023-04-25T23:17:12.359Z,16.90
2023-04-25T23:19:14.289Z,16.88
2023-04-25T23:21:15.735Z,16.85
2023-04-25T23:23:17.214Z,16.82
2023-04-25T23:25:19.061Z,16.82
2023-04-25T23:27:20.866Z,16.79
2023-04-25T23:29:22.418Z,16.75
2023-04-25T23:31:23.858Z,16.73
2023-04-25T23:33:25.850Z,16.69
2023-04-25T23:35:27.714Z,16.68
2023-04-25T23:37:30.450Z,16.66
2023-04-25T23:39:32.217Z,16.63
2023-04-25T23:41:33.677Z,16.60
2023-04-25T23:43:35.249Z,16.59
2023-04-25T23:45:36.734Z,16.56
2023-04-25T23:47:38.392Z,16.53
2023-04-25T23:49:40.582Z,16.50
2023-04-25T23:51:42.251Z,16.49
2023-04-25T23:53:43.662Z,16.44
2023-04-25T23:55:45.057Z,16.43
2023-04-25T23:57:46.602Z,16.41
2023-04-25T23:59:48.218Z,16.38
